Time;durP1;ratioP1;P1;durP2;ratioP2;P2;SDS_P1;SDS_P2;PMS_P1;PMS_P2;Temp;Humidity;BMP_temperature;BMP_pressure;BME280_temperature;BME280_humidity;BME280_pressure;Samples;Min_cycle;Max_cycle;Signal;HPM_P1;HPM_P2
2023/02/04 00:00:35;;;;;;;6.40;5.07;;;;;;;;;;5037387;28;20197;-66
2023/02/04 00:03:05;;;;;;;7.03;5.45;;;;;;;;;;5051183;28;20239;-66
2023/02/04 00:05:33;;;;;;;7.63;5.70;;;;;;;;;;5042216;28;20201;-66
2023/02/04 00:08:02;;;;;;;5.80;5.20;;;;;;;;;;5055849;28;20208;-66
2023/02/04 00:10:30;;;;;;;5.60;5.10;;;;;;;;;;5047530;28;20201;-66
2023/02/04 00:12:58;;;;;;;7.65;6.13;;;;;;;;;;5036081;28;20211;-66
2023/02/04 00:15:27;;;;;;;7.43;5.72;;;;;;;;;;5035466;28;20205;-66
2023/02/04 00:17:55;;;;;;;6.82;4.72;;;;;;;;;;5035710;28;20229;-66
2023/02/04 00:20:24;;;;;;;7.53;5.18;;;;;;;;;;5034914;28;20266;-66
2023/02/04 00:22:52;;;;;;;6.40;5.10;;;;;;;;;;5043259;28;20227;-66
2023/02/04 00:25:21;;;;;;;7.95;5.20;;;;;;;;;;5054942;28;20683;-66
2023/02/04 00:27:51;;;;;;;8.40;5.30;;;;;;;;;;5056421;28;20196;-66
2023/02/04 00:30:20;;;;;;;5.47;4.97;;;;;;;;;;5055669;28;20227;-66
2023/02/04 00:32:50;;;;;;;10.52;6.85;;;;;;;;;;5055672;28;20549;-66
2023/02/04 00:35:18;;;;;;;9.73;6.07;;;;;;;;;;5055272;28;20209;-66
2023/02/04 00:37:47;;;;;;;10.55;6.90;;;;;;;;;;5054565;28;20232;-66
2023/02/04 00:40:16;;;;;;;6.68;5.47;;;;;;;;;;5054723;28;20203;-66
2023/02/04 00:42:44;;;;;;;7.63;5.82;;;;;;;;;;5045069;28;20212;-66
2023/02/04 00:45:13;;;;;;;7.80;6.50;;;;;;;;;;5034744;28;20193;-67
2023/02/04 00:47:41;;;;;;;11.15;7.78;;;;;;;;;;5046229;28;20215;-66
2023/02/04 00:50:09;;;;;;;7.30;6.43;;;;;;;;;;5035302;28;20217;-66
2023/02/04 00:52:38;;;;;;;8.57;7.47;;;;;;;;;;5041230;28;20205;-66
2023/02/04 00:55:09;;;;;;;8.38;6.68;;;;;;;;;;5054250;28;20223;-66
2023/02/04 00:57:37;;;;;;;9.50;7.35;;;;;;;;;;5054340;28;20666;-66
2023/02/04 01:00:06;;;;;;;8.55;6.38;;;;;;;;;;5054096;28;20739;-66
2023/02/04 01:02:34;;;;;;;16.70;11.55;;;;;;;;;;5045740;28;20209;-64
2023/02/04 01:05:02;;;;;;;12.90;9.77;;;;;;;;;;5047089;28;20204;-65
2023/02/04 01:07:32;;;;;;;10.77;8.38;;;;;;;;;;5051962;28;20210;-65
2023/02/04 01:10:00;;;;;;;22.35;9.27;;;;;;;;;;5039556;28;20193;-66
2023/02/04 01:12:29;;;;;;;14.40;8.63;;;;;;;;;;5048260;28;20197;-65
2023/02/04 01:14:58;;;;;;;16.55;9.63;;;;;;;;;;5049122;28;20201;-66
2023/02/04 01:17:26;;;;;;;17.80;9.35;;;;;;;;;;5045855;28;20297;-66
2023/02/04 01:19:55;;;;;;;10.30;8.82;;;;;;;;;;5032576;28;20236;-67
2023/02/04 01:22:22;;;;;;;8.57;7.72;;;;;;;;;;5033448;28;20225;-66
2023/02/04 01:24:50;;;;;;;7.90;7.20;;;;;;;;;;5040058;28;20212;-66
2023/02/04 01:27:38;;;;;;;10.07;7.78;;;;;;;;;;5046193;28;20717;-66
2023/02/04 01:30:07;;;;;;;7.55;6.53;;;;;;;;;;5042215;28;20197;-66
2023/02/04 01:32:35;;;;;;;8.60;7.70;;;;;;;;;;5051211;28;20216;-66
2023/02/04 01:35:03;;;;;;;12.07;7.60;;;;;;;;;;5039438;28;20198;-66
2023/02/04 01:37:31;;;;;;;8.30;7.50;;;;;;;;;;5033792;28;20205;-66
2023/02/04 01:39:59;;;;;;;8.70;7.70;;;;;;;;;;5033757;28;20217;-66
2023/02/04 01:42:27;;;;;;;8.43;7.57;;;;;;;;;;5032886;28;20553;-66
2023/02/04 01:44:56;;;;;;;8.02;7.07;;;;;;;;;;5046309;28;20204;-66
2023/02/04 01:47:24;;;;;;;11.40;8.00;;;;;;;;;;5040583;28;20205;-66
2023/02/04 01:49:54;;;;;;;9.10;8.30;;;;;;;;;;5053564;28;20200;-66
2023/02/04 01:52:22;;;;;;;9.77;8.30;;;;;;;;;;5038205;28;20231;-66
2023/02/04 01:54:52;;;;;;;8.77;7.82;;;;;;;;;;5034285;28;20201;-66
2023/02/04 01:57:20;;;;;;;9.75;8.55;;;;;;;;;;5049656;28;20657;-66
2023/02/04 01:59:48;;;;;;;10.30;8.90;;;;;;;;;;5050351;28;20220;-66
2023/02/04 02:02:40;;;;;;;9.48;8.50;;;;;;;;;;5035812;28;20555;-66
2023/02/04 02:05:09;;;;;;;10.52;8.68;;;;;;;;;;5034182;28;20189;-66
2023/02/04 02:07:37;;;;;;;9.13;8.25;;;;;;;;;;5034209;28;20211;-66
2023/02/04 02:10:07;;;;;;;9.90;8.55;;;;;;;;;;5043245;28;20197;-66
2023/02/04 02:12:35;;;;;;;10.07;7.80;;;;;;;;;;5052305;28;20567;-66
2023/02/04 02:15:03;;;;;;;10.10;9.10;;;;;;;;;;5047104;28;20211;-66
2023/02/04 02:17:32;;;;;;;11.95;10.60;;;;;;;;;;5040310;28;20228;-66
2023/02/04 02:20:02;;;;;;;10.50;8.82;;;;;;;;;;5052734;28;20269;-66
2023/02/04 02:22:34;;;;;;;8.63;7.80;;;;;;;;;;5040889;28;20250;-66
2023/02/04 02:25:09;;;;;;;11.18;9.88;;;;;;;;;;5032076;28;20190;-66
2023/02/04 02:27:38;;;;;;;13.15;8.70;;;;;;;;;;5031443;28;20636;-66
2023/02/04 02:30:07;;;;;;;9.38;8.00;;;;;;;;;;5032763;28;20201;-66
2023/02/04 02:32:36;;;;;;;11.60;8.48;;;;;;;;;;5032858;28;20208;-66
2023/02/04 02:35:05;;;;;;;12.43;9.85;;;;;;;;;;5048017;28;20204;-66
2023/02/04 02:37:34;;;;;;;11.00;9.30;;;;;;;;;;5052843;28;20208;-66
2023/02/04 02:40:02;;;;;;;11.40;9.73;;;;;;;;;;5052143;28;20220;-66
2023/02/04 02:42:32;;;;;;;11.30;9.50;;;;;;;;;;5052350;28;20204;-66
2023/02/04 02:45:00;;;;;;;12.35;9.40;;;;;;;;;;5052652;28;20273;-66
2023/02/04 02:47:31;;;;;;;11.55;8.95;;;;;;;;;;5047444;28;20201;-66
2023/02/04 02:50:00;;;;;;;10.45;8.82;;;;;;;;;;5051594;28;20192;-66
2023/02/04 02:52:28;;;;;;;14.90;9.75;;;;;;;;;;5051524;28;20621;-67
2023/02/04 02:54:57;;;;;;;10.55;9.43;;;;;;;;;;5041006;28;20231;-66
2023/02/04 02:57:25;;;;;;;12.77;8.82;;;;;;;;;;5051306;28;20562;-66
2023/02/04 02:59:54;;;;;;;9.40;8.40;;;;;;;;;;5051092;28;20231;-66
2023/02/04 03:02:24;;;;;;;12.10;8.57;;;;;;;;;;5049131;28;20207;-66
2023/02/04 03:04:56;;;;;;;11.35;9.20;;;;;;;;;;5038526;28;20477;-66
2023/02/04 03:07:27;;;;;;;9.00;8.02;;;;;;;;;;5030598;28;20185;-66
2023/02/04 03:09:55;;;;;;;10.75;8.65;;;;;;;;;;5067571;28;20188;-67
2023/02/04 03:12:23;;;;;;;8.27;7.38;;;;;;;;;;5051787;28;20201;-67
2023/02/04 03:14:51;;;;;;;8.88;8.05;;;;;;;;;;5041161;28;20202;-70
2023/02/04 03:17:21;;;;;;;5.07;4.68;;;;;;;;;;5031826;28;20225;-66
2023/02/04 03:19:49;;;;;;;4.05;3.75;;;;;;;;;;5042595;28;20209;-66
2023/02/04 03:22:18;;;;;;;4.55;4.15;;;;;;;;;;5031759;28;20584;-66
2023/02/04 03:24:46;;;;;;;3.88;3.28;;;;;;;;;;5032283;28;20640;-66
2023/02/04 03:27:15;;;;;;;4.80;2.75;;;;;;;;;;5031431;28;20677;-66
2023/02/04 03:29:44;;;;;;;6.55;3.10;;;;;;;;;;5031285;28;20564;-66
2023/02/04 03:32:12;;;;;;;5.53;2.45;;;;;;;;;;5040192;28;20207;-66
2023/02/04 03:34:41;;;;;;;4.63;2.55;;;;;;;;;;5050807;28;20841;-66
2023/02/04 03:37:09;;;;;;;7.95;2.25;;;;;;;;;;5041624;28;20200;-66
2023/02/04 03:39:37;;;;;;;2.92;2.05;;;;;;;;;;5035453;28;20212;-66
2023/02/04 03:42:05;;;;;;;2.97;1.80;;;;;;;;;;5038679;28;20626;-66
2023/02/04 03:44:33;;;;;;;7.43;2.50;;;;;;;;;;5032158;28;20320;-66
2023/02/04 03:47:01;;;;;;;11.82;2.25;;;;;;;;;;5040032;28;20205;-66
2023/02/04 03:49:31;;;;;;;8.48;2.20;;;;;;;;;;5037568;28;20573;-66
2023/02/04 03:52:00;;;;;;;10.18;2.50;;;;;;;;;;5050255;28;20701;-66
2023/02/04 03:54:28;;;;;;;6.63;2.53;;;;;;;;;;5051434;28;20656;-66
2023/02/04 03:56:57;;;;;;;4.35;2.95;;;;;;;;;;5047464;28;20220;-66
2023/02/04 03:59:25;;;;;;;5.65;2.53;;;;;;;;;;5050874;28;20577;-67
2023/02/04 04:01:53;;;;;;;9.55;2.00;;;;;;;;;;5048997;28;20219;-66
2023/02/04 04:04:21;;;;;;;2.80;2.03;;;;;;;;;;5048284;28;20201;-66
2023/02/04 04:06:49;;;;;;;3.15;2.20;;;;;;;;;;5027954;28;20266;-67
2023/02/04 04:09:19;;;;;;;4.55;2.92;;;;;;;;;;5037210;28;20197;-66
2023/02/04 04:11:47;;;;;;;6.03;2.10;;;;;;;;;;5049790;28;20659;-66
2023/02/04 04:14:15;;;;;;;2.95;2.10;;;;;;;;;;5049578;28;20196;-68
2023/02/04 04:16:44;;;;;;;3.83;2.03;;;;;;;;;;5046955;28;20230;-66
2023/02/04 04:19:14;;;;;;;3.22;2.33;;;;;;;;;;5050511;28;20200;-66
2023/02/04 04:21:42;;;;;;;3.40;2.25;;;;;;;;;;5052242;28;20213;-66
2023/02/04 04:24:10;;;;;;;9.25;3.55;;;;;;;;;;5034986;28;20225;-66
2023/02/04 04:26:40;;;;;;;10.13;2.75;;;;;;;;;;5034888;28;20206;-66
2023/02/04 04:29:08;;;;;;;6.20;3.20;;;;;;;;;;5034560;28;20686;-65
2023/02/04 04:31:37;;;;;;;6.63;2.30;;;;;;;;;;5033714;28;20197;-66
2023/02/04 04:34:05;;;;;;;10.50;2.38;;;;;;;;;;5039011;28;20601;-66
2023/02/04 04:36:33;;;;;;;5.68;2.50;;;;;;;;;;5054826;28;20412;-65
2023/02/04 04:39:01;;;;;;;5.03;2.13;;;;;;;;;;5054760;28;20213;-66
2023/02/04 04:41:30;;;;;;;8.90;2.10;;;;;;;;;;5053186;28;20699;-66
2023/02/04 04:43:59;;;;;;;7.25;2.67;;;;;;;;;;5053366;28;20624;-66
2023/02/04 04:46:27;;;;;;;4.82;2.80;;;;;;;;;;5054375;28;20204;-66
2023/02/04 04:48:55;;;;;;;2.72;2.40;;;;;;;;;;5054380;28;20200;-67
2023/02/04 04:51:23;;;;;;;8.13;3.65;;;;;;;;;;5053004;28;20204;-65
2023/02/04 04:53:51;;;;;;;3.42;2.42;;;;;;;;;;5054108;28;20201;-66
2023/02/04 04:56:19;;;;;;;4.72;2.90;;;;;;;;;;5053128;28;20208;-65
2023/02/04 04:58:47;;;;;;;7.10;2.60;;;;;;;;;;5053281;28;20208;-65
2023/02/04 05:01:16;;;;;;;7.88;3.63;;;;;;;;;;5052827;28;20223;-66
2023/02/04 05:03:45;;;;;;;3.13;2.25;;;;;;;;;;5052608;28;20205;-66
2023/02/04 05:06:13;;;;;;;2.35;2.10;;;;;;;;;;5051007;28;20204;-65
2023/02/04 05:08:41;;;;;;;3.78;2.30;;;;;;;;;;5052399;28;20593;-65
2023/02/04 05:11:09;;;;;;;8.70;2.95;;;;;;;;;;5049996;28;20213;-66
2023/02/04 05:13:37;;;;;;;4.30;2.55;;;;;;;;;;5033986;28;20193;-64
2023/02/04 05:16:05;;;;;;;6.75;3.45;;;;;;;;;;5037221;28;20691;-65
2023/02/04 05:18:34;;;;;;;4.95;3.22;;;;;;;;;;5049124;28;20228;-65
2023/02/04 05:21:02;;;;;;;3.58;3.15;;;;;;;;;;5042508;28;20220;-65
2023/02/04 05:23:30;;;;;;;4.75;3.67;;;;;;;;;;5053907;28;20220;-65
2023/02/04 05:25:58;;;;;;;9.95;3.30;;;;;;;;;;5053122;28;20553;-65
2023/02/04 05:28:26;;;;;;;11.30;3.45;;;;;;;;;;5046268;28;20205;-65
2023/02/04 05:30:54;;;;;;;4.00;2.72;;;;;;;;;;5034475;28;20200;-66
2023/02/04 05:33:22;;;;;;;4.05;2.67;;;;;;;;;;5032500;28;20602;-65
2023/02/04 05:35:51;;;;;;;8.32;3.10;;;;;;;;;;5038011;28;20671;-65
2023/02/04 05:38:19;;;;;;;11.88;4.25;;;;;;;;;;5038347;28;20707;-65
2023/02/04 05:40:47;;;;;;;8.90;3.10;;;;;;;;;;5050055;28;20228;-66
2023/02/04 05:43:15;;;;;;;5.97;3.50;;;;;;;;;;5053441;28;20216;-66
2023/02/04 05:45:43;;;;;;;6.15;2.90;;;;;;;;;;5034575;28;20201;-65
2023/02/04 05:48:11;;;;;;;7.35;3.13;;;;;;;;;;5041073;28;20573;-66
2023/02/04 05:50:39;;;;;;;7.57;2.70;;;;;;;;;;5048881;28;20207;-66
2023/02/04 05:53:11;;;;;;;10.57;3.38;;;;;;;;;;5045360;28;20189;-66
2023/02/04 05:55:39;;;;;;;3.47;2.35;;;;;;;;;;5053251;28;20211;-66
2023/02/04 05:58:07;;;;;;;9.18;4.07;;;;;;;;;;5047568;28;20197;-66
2023/02/04 06:00:35;;;;;;;5.57;2.92;;;;;;;;;;5032899;28;20221;-66
2023/02/04 06:03:03;;;;;;;5.75;2.47;;;;;;;;;;5036426;28;20549;-66
2023/02/04 06:05:31;;;;;;;6.65;2.40;;;;;;;;;;5036893;28;20198;-67
2023/02/04 06:07:59;;;;;;;5.90;3.15;;;;;;;;;;5033178;28;20204;-66
2023/02/04 06:10:29;;;;;;;4.40;2.33;;;;;;;;;;5048548;28;20206;-66
2023/02/04 06:12:57;;;;;;;2.42;2.22;;;;;;;;;;5036085;28;20213;-66
2023/02/04 06:15:25;;;;;;;3.15;2.20;;;;;;;;;;5045057;28;20551;-66
2023/02/04 06:17:53;;;;;;;2.90;2.10;;;;;;;;;;5041431;28;20243;-66
2023/02/04 06:20:21;;;;;;;6.32;2.13;;;;;;;;;;5052471;28;20211;-66
2023/02/04 06:22:50;;;;;;;2.35;1.70;;;;;;;;;;5037138;28;20228;-67
2023/02/04 06:25:18;;;;;;;1.90;1.55;;;;;;;;;;5032976;28;20558;-66
2023/02/04 06:27:47;;;;;;;4.20;2.28;;;;;;;;;;5032673;28;20205;-66
2023/02/04 06:30:15;;;;;;;2.58;1.73;;;;;;;;;;5032657;28;20212;-65
2023/02/04 06:32:43;;;;;;;3.63;2.10;;;;;;;;;;5032945;28;20205;-65
2023/02/04 06:35:12;;;;;;;3.22;2.13;;;;;;;;;;5050123;28;20209;-65
2023/02/04 06:37:40;;;;;;;3.15;2.78;;;;;;;;;;5052153;28;20209;-66
2023/02/04 06:40:09;;;;;;;3.72;1.63;;;;;;;;;;5051899;28;20201;-67
2023/02/04 06:42:37;;;;;;;3.10;2.10;;;;;;;;;;5052123;28;20216;-66
2023/02/04 06:45:07;;;;;;;2.25;2.05;;;;;;;;;;5052832;28;20212;-66
2023/02/04 06:47:35;;;;;;;4.50;2.20;;;;;;;;;;5052559;28;20216;-66
2023/02/04 06:50:03;;;;;;;2.70;2.50;;;;;;;;;;5052418;28;20205;-66
2023/02/04 06:52:31;;;;;;;4.40;3.50;;;;;;;;;;5043664;28;20201;-66
2023/02/04 06:54:59;;;;;;;6.80;2.50;;;;;;;;;;5030065;28;20201;-66
2023/02/04 06:57:27;;;;;;;3.88;2.40;;;;;;;;;;5032282;28;20266;-66
2023/02/04 06:59:56;;;;;;;3.35;2.42;;;;;;;;;;5032561;28;20201;-66
2023/02/04 07:02:25;;;;;;;8.18;2.67;;;;;;;;;;5032287;28;20641;-66
2023/02/04 07:04:54;;;;;;;3.28;2.30;;;;;;;;;;5039083;28;20200;-66
2023/02/04 07:07:24;;;;;;;6.88;2.65;;;;;;;;;;5051856;28;20211;-66
2023/02/04 07:09:52;;;;;;;3.22;2.90;;;;;;;;;;5039566;28;20556;-66
2023/02/04 07:12:21;;;;;;;4.35;3.17;;;;;;;;;;5052072;28;20210;-66
2023/02/04 07:14:49;;;;;;;4.38;2.40;;;;;;;;;;5051733;28;20211;-66
2023/02/04 07:17:18;;;;;;;8.13;2.70;;;;;;;;;;5043436;28;20229;-66
2023/02/04 07:19:47;;;;;;;7.05;3.22;;;;;;;;;;5041387;28;20209;-66
2023/02/04 07:22:15;;;;;;;4.30;2.72;;;;;;;;;;5029909;28;20235;-66
2023/02/04 07:24:44;;;;;;;4.53;3.08;;;;;;;;;;5040334;28;20230;-66
2023/02/04 07:27:13;;;;;;;9.52;3.53;;;;;;;;;;5040045;28;20197;-66
2023/02/04 07:29:41;;;;;;;5.25;3.90;;;;;;;;;;5039258;28;20682;-66
2023/02/04 07:32:09;;;;;;;4.90;2.88;;;;;;;;;;5040661;28;20207;-66
2023/02/04 07:34:39;;;;;;;7.65;4.50;;;;;;;;;;5041579;28;20210;-65
2023/02/04 07:37:09;;;;;;;8.80;4.97;;;;;;;;;;5041040;28;20625;-66
2023/02/04 07:39:37;;;;;;;5.93;3.75;;;;;;;;;;5037727;28;20202;-66
2023/02/04 07:42:06;;;;;;;11.70;6.05;;;;;;;;;;5045847;28;20233;-66
2023/02/04 07:44:43;;;;;;;9.30;3.92;;;;;;;;;;5062408;28;20199;-66
2023/02/04 07:47:12;;;;;;;8.43;4.10;;;;;;;;;;5066662;28;20207;-65
2023/02/04 07:49:40;;;;;;;3.33;3.03;;;;;;;;;;5045283;28;20205;-66
2023/02/04 07:52:10;;;;;;;3.90;3.47;;;;;;;;;;5048528;28;20205;-66
2023/02/04 07:54:38;;;;;;;6.40;3.50;;;;;;;;;;5052999;28;20207;-67
2023/02/04 07:57:06;;;;;;;8.90;4.25;;;;;;;;;;5057918;28;20205;-66
2023/02/04 07:59:35;;;;;;;6.65;3.70;;;;;;;;;;5054038;28;20204;-66
2023/02/04 08:02:02;;;;;;;8.90;7.38;;;;;;;;;;5043903;28;20229;-66
2023/02/04 08:04:31;;;;;;;11.55;4.03;;;;;;;;;;5046110;28;20201;-66
2023/02/04 08:06:59;;;;;;;6.03;3.10;;;;;;;;;;5056903;28;20651;-66
2023/02/04 08:09:28;;;;;;;8.30;3.47;;;;;;;;;;5067281;28;20196;-66
2023/02/04 08:11:56;;;;;;;6.75;3.22;;;;;;;;;;5071700;28;20196;-66
2023/02/04 08:14:24;;;;;;;7.85;3.30;;;;;;;;;;5067913;28;20215;-66
2023/02/04 08:16:52;;;;;;;7.80;4.07;;;;;;;;;;5067088;28;20250;-66
2023/02/04 08:19:20;;;;;;;9.70;4.05;;;;;;;;;;5054086;28;20208;-66
2023/02/04 08:21:48;;;;;;;10.15;4.10;;;;;;;;;;5057561;28;20239;-66
2023/02/04 08:24:17;;;;;;;7.25;3.70;;;;;;;;;;5069138;28;20231;-66
2023/02/04 08:26:46;;;;;;;11.68;5.95;;;;;;;;;;5065364;28;20203;-66
2023/02/04 08:29:14;;;;;;;7.20;3.65;;;;;;;;;;5068708;28;20218;-66
2023/02/04 08:31:42;;;;;;;4.55;3.22;;;;;;;;;;5059419;28;20597;-67
2023/02/04 08:34:10;;;;;;;9.32;4.65;;;;;;;;;;5050543;28;20208;-66
2023/02/04 08:36:38;;;;;;;12.30;7.63;;;;;;;;;;5043748;28;20201;-67
2023/02/04 08:39:06;;;;;;;10.25;4.60;;;;;;;;;;5048845;28;20209;-68
2023/02/04 08:41:34;;;;;;;11.55;5.10;;;;;;;;;;5033005;28;20229;-67
2023/02/04 08:44:04;;;;;;;8.13;5.35;;;;;;;;;;5035204;28;20193;-66
2023/02/04 08:46:32;;;;;;;6.72;3.97;;;;;;;;;;5053441;28;20201;-66
2023/02/04 08:49:00;;;;;;;10.27;4.10;;;;;;;;;;5051706;28;20657;-67
2023/02/04 08:51:28;;;;;;;13.48;4.30;;;;;;;;;;5053739;28;20565;-66
2023/02/04 08:53:57;;;;;;;7.05;3.78;;;;;;;;;;5054606;28;20558;-66
2023/02/04 08:56:25;;;;;;;8.48;4.80;;;;;;;;;;5053715;28;20706;-66
2023/02/04 08:58:53;;;;;;;7.45;3.83;;;;;;;;;;5052352;28;20224;-66
2023/02/04 09:01:23;;;;;;;20.95;5.95;;;;;;;;;;5046798;28;20204;-66
2023/02/04 09:03:51;;;;;;;10.15;5.25;;;;;;;;;;5045620;28;20277;-66
2023/02/04 09:06:19;;;;;;;8.63;4.47;;;;;;;;;;5042298;28;20207;-66
2023/02/04 09:08:48;;;;;;;12.23;5.25;;;;;;;;;;5050129;28;20213;-66
2023/02/04 09:11:16;;;;;;;14.85;6.75;;;;;;;;;;5052750;28;20656;-65
2023/02/04 09:13:44;;;;;;;23.42;8.18;;;;;;;;;;5048130;28;20559;-67
2023/02/04 09:16:12;;;;;;;15.13;8.57;;;;;;;;;;5048614;28;20428;-66
2023/02/04 09:18:42;;;;;;;12.30;6.32;;;;;;;;;;5046291;28;20585;-66
2023/02/04 09:21:10;;;;;;;11.40;7.72;;;;;;;;;;5038619;28;20208;-66
2023/02/04 09:23:38;;;;;;;17.33;6.35;;;;;;;;;;5032880;28;20696;-66
2023/02/04 09:26:06;;;;;;;15.27;5.85;;;;;;;;;;5032970;28;20205;-66
2023/02/04 09:28:34;;;;;;;8.52;5.15;;;;;;;;;;5033957;28;20209;-66
2023/02/04 09:31:02;;;;;;;8.70;4.43;;;;;;;;;;5033313;28;20220;-67
2023/02/04 09:33:30;;;;;;;16.92;3.90;;;;;;;;;;5032383;28;20197;-66
2023/02/04 09:36:00;;;;;;;8.48;4.50;;;;;;;;;;5033889;28;20224;-66
2023/02/04 09:38:28;;;;;;;10.80;4.93;;;;;;;;;;5033542;28;20223;-65
2023/02/04 09:40:57;;;;;;;15.98;9.57;;;;;;;;;;5033240;28;20668;-66
2023/02/04 09:43:28;;;;;;;10.50;7.28;;;;;;;;;;5033251;28;20221;-65
2023/02/04 09:45:56;;;;;;;10.32;4.85;;;;;;;;;;5033278;28;20197;-65
2023/02/04 09:48:25;;;;;;;9.65;4.60;;;;;;;;;;5032926;28;20209;-65
2023/02/04 09:50:53;;;;;;;8.80;4.80;;;;;;;;;;5033037;28;20213;-65
2023/02/04 09:53:24;;;;;;;14.23;5.05;;;;;;;;;;5032729;28;20205;-65
2023/02/04 09:55:52;;;;;;;5.50;4.10;;;;;;;;;;5033413;28;20200;-65
2023/02/04 09:58:22;;;;;;;13.55;5.70;;;;;;;;;;5032993;28;20660;-66
2023/02/04 10:00:53;;;;;;;6.90;3.90;;;;;;;;;;5031256;28;20212;-66
2023/02/04 10:03:22;;;;;;;8.20;3.88;;;;;;;;;;5031411;28;20304;-66
2023/02/04 10:05:50;;;;;;;41.65;22.55;;;;;;;;;;5032477;28;20215;-66
2023/02/04 10:08:19;;;;;;;17.85;10.98;;;;;;;;;;5031620;28;20198;-66
2023/02/04 10:10:50;;;;;;;28.90;18.23;;;;;;;;;;5031579;28;20209;-66
2023/02/04 10:13:19;;;;;;;23.27;13.98;;;;;;;;;;5032617;28;20189;-67
2023/02/04 10:15:48;;;;;;;34.38;16.33;;;;;;;;;;5033426;28;20219;-66
2023/02/04 10:18:20;;;;;;;19.98;10.77;;;;;;;;;;5032509;28;20229;-66
2023/02/04 10:20:48;;;;;;;13.27;7.07;;;;;;;;;;5032320;28;20197;-66
2023/02/04 10:23:16;;;;;;;8.65;5.35;;;;;;;;;;5032728;28;20217;-66
2023/02/04 10:25:44;;;;;;;8.48;5.10;;;;;;;;;;5033106;28;20216;-65
2023/02/04 10:28:14;;;;;;;13.25;4.45;;;;;;;;;;5032524;28;20213;-66
2023/02/04 10:30:42;;;;;;;11.88;5.30;;;;;;;;;;5031542;28;20208;-65
2023/02/04 10:33:14;;;;;;;10.05;5.20;;;;;;;;;;5032247;28;20205;-65
2023/02/04 10:35:46;;;;;;;12.45;5.15;;;;;;;;;;5032947;28;20315;-66
2023/02/04 10:38:14;;;;;;;13.50;4.57;;;;;;;;;;5032309;28;20632;-65
2023/02/04 10:40:43;;;;;;;13.27;5.78;;;;;;;;;;5032752;28;20212;-67
2023/02/04 10:43:11;;;;;;;23.52;5.78;;;;;;;;;;5032332;28;20222;-66
2023/02/04 10:45:44;;;;;;;17.80;4.30;;;;;;;;;;5032252;28;20213;-66
2023/02/04 10:48:16;;;;;;;8.80;3.67;;;;;;;;;;5032359;28;20181;-66
2023/02/04 10:50:44;;;;;;;13.38;3.85;;;;;;;;;;5032556;28;20197;-66
2023/02/04 10:56:01;;;;;;;20.10;5.07;;;;;;;;;;5032324;28;20189;-65
2023/02/04 10:58:30;;;;;;;27.05;3.75;;;;;;;;;;5032129;28;20216;-65
2023/02/04 11:00:59;;;;;;;27.60;6.15;;;;;;;;;;5031319;28;20224;-65
2023/02/04 11:03:29;;;;;;;10.95;4.10;;;;;;;;;;5031095;28;20627;-65
2023/02/04 11:05:58;;;;;;;12.40;4.10;;;;;;;;;;5032070;28;20552;-66
2023/02/04 11:08:27;;;;;;;13.02;4.30;;;;;;;;;;5031868;28;20208;-66
2023/02/04 11:10:57;;;;;;;10.73;4.30;;;;;;;;;;5030578;28;20201;-67
2023/02/04 11:13:26;;;;;;;14.77;4.32;;;;;;;;;;5031896;28;20737;-67
2023/02/04 11:16:10;;;;;;;17.02;5.05;;;;;;;;;;5030648;28;20664;-67
2023/02/04 11:18:46;;;;;;;11.15;4.50;;;;;;;;;;5031574;28;20186;-67
2023/02/04 11:21:16;;;;;;;12.52;4.57;;;;;;;;;;5032460;28;20211;-66
2023/02/04 11:23:44;;;;;;;14.30;4.97;;;;;;;;;;5032018;28;20274;-66
2023/02/04 11:26:16;;;;;;;10.27;4.20;;;;;;;;;;5035697;28;20205;-66
2023/02/04 11:28:48;;;;;;;11.50;4.25;;;;;;;;;;5034298;28;20216;-67
2023/02/04 11:31:29;;;;;;;19.47;4.80;;;;;;;;;;5035623;28;20205;-67
2023/02/04 11:34:08;;;;;;;10.77;4.45;;;;;;;;;;5035370;28;20557;-66
2023/02/04 11:36:36;;;;;;;13.73;4.67;;;;;;;;;;5036074;28;20209;-67
2023/02/04 11:39:08;;;;;;;17.23;5.53;;;;;;;;;;5036006;28;20623;-66
2023/02/04 11:41:36;;;;;;;19.40;4.53;;;;;;;;;;5036427;28;20592;-66
2023/02/04 11:44:04;;;;;;;11.13;4.90;;;;;;;;;;5035680;28;20644;-66
2023/02/04 11:46:34;;;;;;;17.93;5.03;;;;;;;;;;5035976;28;20606;-66
2023/02/04 11:49:02;;;;;;;15.07;5.00;;;;;;;;;;5034265;28;20594;-66
2023/02/04 11:51:31;;;;;;;16.03;8.00;;;;;;;;;;5035557;28;20596;-66
2023/02/04 11:53:59;;;;;;;12.13;4.83;;;;;;;;;;5035639;28;20950;-66
2023/02/04 11:56:28;;;;;;;14.15;6.72;;;;;;;;;;5035917;28;20638;-66
2023/02/04 11:58:57;;;;;;;11.63;5.30;;;;;;;;;;5035626;28;20197;-66
2023/02/04 12:01:26;;;;;;;16.27;5.70;;;;;;;;;;5035552;28;20618;-66
2023/02/04 12:03:58;;;;;;;14.33;5.10;;;;;;;;;;5035011;28;20224;-66
2023/02/04 12:06:27;;;;;;;21.93;7.87;;;;;;;;;;5035370;28;20934;-65
2023/02/04 12:09:05;;;;;;;11.80;4.67;;;;;;;;;;5035432;28;20607;-66
2023/02/04 12:11:34;;;;;;;16.83;10.23;;;;;;;;;;5035345;28;20607;-67
2023/02/04 12:14:07;;;;;;;11.80;5.80;;;;;;;;;;5034314;28;20604;-67
2023/02/04 12:16:41;;;;;;;25.27;12.37;;;;;;;;;;5034913;28;20670;-67
2023/02/04 12:19:11;;;;;;;23.93;11.00;;;;;;;;;;5035310;28;21110;-67
2023/02/04 12:21:39;;;;;;;15.40;10.73;;;;;;;;;;5033780;28;20623;-66
2023/02/04 12:24:07;;;;;;;11.53;6.80;;;;;;;;;;5035502;28;20668;-66
2023/02/04 12:26:35;;;;;;;20.57;7.20;;;;;;;;;;5035206;28;20619;-67
2023/02/04 12:29:04;;;;;;;9.57;6.40;;;;;;;;;;5035179;28;20666;-67
2023/02/04 12:31:33;;;;;;;12.47;7.80;;;;;;;;;;5033416;28;20624;-67
2023/02/04 12:34:02;;;;;;;9.20;7.80;;;;;;;;;;5035127;28;20689;-67
2023/02/04 12:36:31;;;;;;;11.73;7.90;;;;;;;;;;5034474;28;20962;-67
2023/02/04 12:39:01;;;;;;;12.67;7.37;;;;;;;;;;5033633;28;20662;-67
2023/02/04 12:41:30;;;;;;;11.53;8.27;;;;;;;;;;5034411;28;20731;-66
2023/02/04 12:44:00;;;;;;;15.80;7.67;;;;;;;;;;5034981;28;20680;-66
2023/02/04 12:46:28;;;;;;;14.83;8.30;;;;;;;;;;5034959;28;20615;-67
2023/02/04 12:48:56;;;;;;;13.43;8.00;;;;;;;;;;5035847;28;20685;-67
2023/02/04 12:51:24;;;;;;;30.60;24.40;;;;;;;;;;5034223;28;20612;-66
2023/02/04 12:53:54;;;;;;;31.27;15.43;;;;;;;;;;5034859;28;20590;-66
2023/02/04 12:56:23;;;;;;;16.37;11.77;;;;;;;;;;5034853;28;20616;-67
2023/02/04 12:58:51;;;;;;;17.87;10.63;;;;;;;;;;5054053;28;21213;-67
2023/02/04 13:01:19;;;;;;;23.73;11.10;;;;;;;;;;5054028;28;20603;-67
2023/02/04 13:03:47;;;;;;;12.80;9.70;;;;;;;;;;5047835;28;21231;-67
2023/02/04 13:06:15;;;;;;;16.60;9.13;;;;;;;;;;5048530;28;20627;-67
2023/02/04 13:08:44;;;;;;;16.47;8.30;;;;;;;;;;5052625;28;20629;-65
2023/02/04 13:11:13;;;;;;;15.13;11.67;;;;;;;;;;5053419;28;20985;-66
2023/02/04 13:13:42;;;;;;;17.03;8.70;;;;;;;;;;5039257;28;20706;-66
2023/02/04 13:16:11;;;;;;;15.27;8.53;;;;;;;;;;5033538;28;20616;-67
2023/02/04 13:18:39;;;;;;;15.50;9.00;;;;;;;;;;5034313;28;20559;-67
2023/02/04 13:21:07;;;;;;;10.23;9.07;;;;;;;;;;5033670;28;20620;-67
2023/02/04 13:23:36;;;;;;;13.10;8.83;;;;;;;;;;5034059;28;20632;-68
2023/02/04 13:26:07;;;;;;;13.10;9.07;;;;;;;;;;5033882;28;20584;-67
2023/02/04 13:28:37;;;;;;;14.63;10.73;;;;;;;;;;5033771;28;20612;-67
2023/02/04 13:31:05;;;;;;;16.83;9.73;;;;;;;;;;5033433;28;20624;-67
2023/02/04 13:33:34;;;;;;;14.80;9.53;;;;;;;;;;5033576;28;20662;-67
2023/02/04 13:36:02;;;;;;;13.33;9.30;;;;;;;;;;5032221;28;21017;-66
2023/02/04 13:38:30;;;;;;;14.97;9.30;;;;;;;;;;5041074;28;20623;-66
2023/02/04 13:40:59;;;;;;;12.70;10.40;;;;;;;;;;5052379;28;20627;-66
2023/02/04 13:43:27;;;;;;;10.53;9.10;;;;;;;;;;5051423;28;21246;-66
2023/02/04 13:45:56;;;;;;;17.73;9.37;;;;;;;;;;5035672;28;20624;-67
2023/02/04 13:48:25;;;;;;;12.17;10.10;;;;;;;;;;5043561;28;20647;-66
2023/02/04 13:50:53;;;;;;;25.70;11.73;;;;;;;;;;5052655;28;20988;-67
2023/02/04 13:53:21;;;;;;;12.07;9.77;;;;;;;;;;5050600;28;20635;-67
2023/02/04 13:55:49;;;;;;;16.73;9.60;;;;;;;;;;5046532;28;20651;-66
2023/02/04 13:58:18;;;;;;;12.33;9.60;;;;;;;;;;5036187;28;21186;-66
2023/02/04 14:00:46;;;;;;;11.50;10.20;;;;;;;;;;5032906;28;20624;-66
2023/02/04 14:03:15;;;;;;;9.90;8.90;;;;;;;;;;5033178;28;20615;-66
2023/02/04 14:05:44;;;;;;;10.40;9.37;;;;;;;;;;5051249;28;21145;-66
2023/02/04 14:08:12;;;;;;;15.10;10.00;;;;;;;;;;5051746;28;20621;-67
2023/02/04 14:10:40;;;;;;;14.70;9.83;;;;;;;;;;5050989;28;20631;-67
2023/02/04 14:13:08;;;;;;;11.10;10.00;;;;;;;;;;5052075;28;20611;-68
2023/02/04 14:15:39;;;;;;;13.67;10.93;;;;;;;;;;5033224;28;20673;-67
2023/02/04 14:18:07;;;;;;;11.67;9.20;;;;;;;;;;5033076;28;20644;-67
2023/02/04 14:20:37;;;;;;;18.13;8.90;;;;;;;;;;5033190;28;20616;-66
2023/02/04 14:23:06;;;;;;;9.93;9.00;;;;;;;;;;5033468;28;20654;-65
2023/02/04 14:25:34;;;;;;;16.33;9.83;;;;;;;;;;5050645;28;20642;-65
2023/02/04 14:28:02;;;;;;;12.50;9.90;;;;;;;;;;5052632;28;20607;-67
2023/02/04 14:30:31;;;;;;;16.97;9.60;;;;;;;;;;5051271;28;20623;-66
2023/02/04 14:33:00;;;;;;;11.60;10.57;;;;;;;;;;5033035;28;20630;-66
2023/02/04 14:35:28;;;;;;;20.67;11.20;;;;;;;;;;5051159;28;20655;-65
2023/02/04 14:37:58;;;;;;;15.03;10.87;;;;;;;;;;5052201;28;20623;-66
2023/02/04 14:40:27;;;;;;;13.50;10.00;;;;;;;;;;5052541;28;20633;-67
2023/02/04 14:42:57;;;;;;;11.60;9.20;;;;;;;;;;5051410;28;20632;-67
2023/02/04 14:45:26;;;;;;;12.33;9.40;;;;;;;;;;5047327;28;20981;-66
2023/02/04 14:47:55;;;;;;;9.90;8.63;;;;;;;;;;5052063;28;21269;-66